Time;durP1;ratioP1;P1;durP2;ratioP2;P2;SDS_P1;SDS_P2;PMS_P1;PMS_P2;Temp;Humidity;BMP_temperature;BMP_pressure;BME280_temperature;BME280_humidity;BME280_pressure;Samples;Min_cycle;Max_cycle;Signal;HPM_P1;HPM_P2
2021/11/26 00:00:58;;;;;;;6.40;5.30;;;21.50;35.70;;;;;;5022963;28;21434;-71
2021/11/26 00:03:24;;;;;;;6.25;5.25;;;21.50;35.60;;;;;;5022744;28;20753;-71
2021/11/26 00:05:50;;;;;;;6.33;5.47;;;21.50;35.50;;;;;;5022071;28;20426;-71
2021/11/26 00:08:15;;;;;;;6.72;5.45;;;21.40;35.50;;;;;;5022797;28;20576;-71
2021/11/26 00:10:41;;;;;;;6.80;5.20;;;21.40;35.50;;;;;;5022546;28;20391;-71
2021/11/26 00:13:09;;;;;;;5.80;4.90;;;21.40;35.50;;;;;;5022566;28;20885;-68
2021/11/26 00:15:39;;;;;;;6.82;5.20;;;21.50;35.60;;;;;;5020728;28;20954;-71
2021/11/26 00:18:09;;;;;;;6.53;5.10;;;21.40;35.60;;;;;;5020872;28;20822;-70
2021/11/26 00:20:36;;;;;;;7.22;5.43;;;21.40;35.50;;;;;;5021404;28;20438;-72
2021/11/26 00:23:02;;;;;;;6.43;5.30;;;21.40;35.60;;;;;;5022357;28;20398;-72
2021/11/26 00:25:28;;;;;;;6.23;5.40;;;21.40;35.50;;;;;;5022032;28;20500;-71
2021/11/26 00:27:54;;;;;;;6.43;5.25;;;21.40;35.50;;;;;;5020603;28;20460;-72
2021/11/26 00:30:19;;;;;;;6.67;5.50;;;21.40;35.70;;;;;;5021267;28;21503;-72
2021/11/26 00:32:45;;;;;;;6.75;5.55;;;21.40;36.20;;;;;;5020905;28;20422;-68
2021/11/26 00:35:11;;;;;;;6.37;5.43;;;21.40;35.50;;;;;;5022264;28;20537;-68
2021/11/26 00:37:37;;;;;;;6.20;5.30;;;21.40;35.60;;;;;;5021665;28;20438;-69
2021/11/26 00:40:04;;;;;;;6.82;5.50;;;21.40;35.60;;;;;;5022011;28;20406;-68
2021/11/26 00:42:29;;;;;;;6.82;5.40;;;21.40;35.60;;;;;;5020901;28;20391;-71
2021/11/26 00:44:55;;;;;;;6.57;5.50;;;21.40;35.50;;;;;;5022121;28;20902;-71
2021/11/26 00:47:21;;;;;;;6.40;5.35;;;21.40;35.50;;;;;;5037178;28;20410;-70
2021/11/26 00:49:47;;;;;;;8.00;5.72;;;21.40;35.50;;;;;;5023326;28;21047;-71
2021/11/26 00:52:13;;;;;;;6.40;4.90;;;21.40;35.50;;;;;;5026159;28;20984;-67
2021/11/26 00:54:39;;;;;;;6.50;5.38;;;21.30;35.30;;;;;;5030345;28;20854;-71
2021/11/26 00:57:09;;;;;;;6.80;5.30;;;21.30;35.40;;;;;;5033723;28;20468;-71
2021/11/26 00:59:36;;;;;;;6.88;5.55;;;21.30;35.40;;;;;;5034690;28;20395;-67
2021/11/26 01:02:02;;;;;;;6.95;5.50;;;21.30;35.50;;;;;;5034793;28;20887;-69
2021/11/26 01:04:28;;;;;;;6.60;5.50;;;21.40;35.50;;;;;;5035013;28;20395;-68
2021/11/26 01:06:53;;;;;;;6.70;5.10;;;21.40;35.60;;;;;;5033680;28;20427;-71
2021/11/26 01:09:19;;;;;;;5.57;4.90;;;21.40;35.50;;;;;;5034722;28;20387;-72
2021/11/26 01:11:45;;;;;;;6.37;5.23;;;21.30;35.50;;;;;;5034298;28;20418;-71
2021/11/26 01:14:10;;;;;;;5.93;5.20;;;21.30;35.40;;;;;;5034812;28;20745;-72
2021/11/26 01:16:36;;;;;;;6.37;5.07;;;21.30;35.50;;;;;;5034785;28;20395;-72
2021/11/26 01:19:03;;;;;;;6.25;4.97;;;21.30;35.50;;;;;;5034757;28;20394;-70
2021/11/26 01:21:29;;;;;;;6.43;5.23;;;21.30;35.50;;;;;;5034574;28;20434;-72
2021/11/26 01:23:55;;;;;;;6.33;5.10;;;21.30;35.50;;;;;;5032900;28;20401;-70
2021/11/26 01:26:21;;;;;;;6.07;5.25;;;21.30;35.30;;;;;;5034309;28;20422;-70
2021/11/26 01:28:49;;;;;;;6.30;5.18;;;21.30;35.40;;;;;;5034568;28;20418;-70
2021/11/26 01:31:15;;;;;;;6.28;5.05;;;21.30;35.50;;;;;;5034389;28;20470;-72
2021/11/26 01:33:41;;;;;;;6.50;5.20;;;21.30;35.30;;;;;;5033969;28;20470;-72
2021/11/26 01:36:07;;;;;;;6.83;5.60;;;21.30;35.40;;;;;;5034311;28;20837;-70
2021/11/26 01:38:32;;;;;;;6.32;5.13;;;21.30;35.40;;;;;;5034273;28;20398;-71
2021/11/26 01:40:59;;;;;;;5.93;5.18;;;21.30;35.30;;;;;;5034211;28;20398;-69
2021/11/26 01:43:25;;;;;;;6.78;5.35;;;21.30;35.30;;;;;;5034172;28;20414;-72
2021/11/26 01:45:54;;;;;;;6.60;5.40;;;21.30;35.50;;;;;;5033689;28;20534;-72
2021/11/26 01:48:21;;;;;;;6.80;5.25;;;21.30;35.40;;;;;;5034131;28;20392;-72
2021/11/26 01:50:49;;;;;;;6.05;5.00;;;21.30;35.40;;;;;;5032909;28;20402;-72
2021/11/26 01:53:15;;;;;;;6.25;5.13;;;21.30;35.50;;;;;;5033963;28;20387;-73
2021/11/26 01:55:41;;;;;;;6.40;5.17;;;21.30;35.40;;;;;;5033617;28;20802;-72
2021/11/26 01:58:10;;;;;;;5.65;4.95;;;21.30;35.30;;;;;;5033989;28;20448;-73
2021/11/26 02:00:38;;;;;;;6.75;5.43;;;21.30;35.50;;;;;;5033622;28;20392;-72
2021/11/26 02:03:04;;;;;;;6.55;5.07;;;21.20;35.40;;;;;;5033822;28;20391;-72
2021/11/26 02:05:30;;;;;;;6.22;5.20;;;21.30;35.50;;;;;;5033797;28;20414;-72
2021/11/26 02:07:56;;;;;;;6.07;5.30;;;21.30;35.40;;;;;;5033312;28;20401;-72
2021/11/26 02:10:21;;;;;;;6.70;5.30;;;21.30;35.50;;;;;;5033763;28;20521;-74
2021/11/26 02:12:47;;;;;;;6.38;5.22;;;21.30;35.40;;;;;;5033692;28;20787;-68
2021/11/26 02:15:24;;;;;;;7.13;5.63;;;21.30;35.30;;;;;;5033566;28;20437;-73
2021/11/26 02:17:53;;;;;;;6.20;5.30;;;21.20;35.30;;;;;;5033178;28;20484;-73
2021/11/26 02:20:21;;;;;;;6.90;5.22;;;21.20;35.30;;;;;;5033460;28;20444;-73
2021/11/26 02:22:48;;;;;;;6.32;5.28;;;21.20;35.30;;;;;;5033449;28;20391;-74
2021/11/26 02:25:14;;;;;;;6.47;4.90;;;21.20;35.30;;;;;;5033273;28;20568;-73
2021/11/26 02:27:41;;;;;;;5.32;4.78;;;21.20;35.30;;;;;;5033064;28;20415;-72
2021/11/26 02:30:18;;;;;;;7.05;5.18;;;21.20;35.30;;;;;;5033499;28;20395;-73
2021/11/26 02:32:46;;;;;;;6.85;5.30;;;21.20;35.40;;;;;;5033339;28;20388;-73
2021/11/26 02:35:13;;;;;;;5.65;4.65;;;21.20;35.40;;;;;;5033217;28;20387;-73
2021/11/26 02:37:40;;;;;;;6.20;4.85;;;21.20;35.50;;;;;;5033024;28;20419;-71
2021/11/26 02:40:07;;;;;;;6.03;4.88;;;21.20;35.30;;;;;;5031834;28;20406;-73
2021/11/26 02:42:36;;;;;;;6.20;4.82;;;21.20;35.40;;;;;;5031851;28;20395;-73
2021/11/26 02:45:02;;;;;;;6.05;5.10;;;21.20;35.30;;;;;;5031787;28;20395;-73
2021/11/26 02:47:28;;;;;;;6.00;4.90;;;21.20;35.40;;;;;;5032980;28;20972;-71
2021/11/26 02:49:53;;;;;;;5.37;4.70;;;21.20;35.40;;;;;;5032482;28;20474;-74
2021/11/26 02:52:19;;;;;;;6.20;4.88;;;21.20;35.30;;;;;;5032926;28;20407;-73
2021/11/26 02:54:45;;;;;;;6.50;4.93;;;21.20;35.30;;;;;;5032979;28;20438;-74
2021/11/26 02:57:10;;;;;;;6.03;5.13;;;21.20;35.40;;;;;;5031532;28;20409;-72
2021/11/26 02:59:36;;;;;;;6.90;4.97;;;21.20;35.40;;;;;;5032784;28;20431;-74
2021/11/26 03:02:02;;;;;;;6.05;5.00;;;21.10;35.20;;;;;;5032532;28;20421;-74
2021/11/26 03:04:28;;;;;;;6.20;4.93;;;21.10;35.20;;;;;;5032710;28;20445;-74
2021/11/26 03:07:05;;;;;;;5.60;4.70;;;21.10;35.20;;;;;;5032560;28;20433;-74
2021/11/26 03:09:31;;;;;;;6.35;4.85;;;21.10;35.20;;;;;;5031342;28;20441;-74
2021/11/26 03:11:57;;;;;;;6.20;4.70;;;21.20;35.30;;;;;;5031410;28;20402;-74
2021/11/26 03:14:23;;;;;;;6.43;4.80;;;21.20;35.20;;;;;;5032484;28;20398;-74
2021/11/26 03:16:48;;;;;;;5.45;4.47;;;21.10;35.30;;;;;;5032413;28;20387;-73
2021/11/26 03:19:14;;;;;;;5.90;4.80;;;21.10;35.30;;;;;;5032320;28;20424;-70
2021/11/26 03:21:40;;;;;;;6.03;4.80;;;21.10;35.40;;;;;;5032159;28;20426;-74
2021/11/26 03:24:06;;;;;;;8.63;4.93;;;21.20;35.40;;;;;;5031098;28;20955;-75
2021/11/26 03:26:32;;;;;;;6.83;5.13;;;21.10;35.30;;;;;;5030865;28;20451;-72
2021/11/26 03:28:58;;;;;;;5.38;4.47;;;21.10;35.30;;;;;;5032260;28;20485;-72
2021/11/26 03:31:23;;;;;;;6.03;4.65;;;21.10;35.30;;;;;;5031991;28;20749;-74
2021/11/26 03:33:49;;;;;;;6.13;4.80;;;21.10;35.20;;;;;;5031726;28;20379;-73
2021/11/26 03:36:15;;;;;;;5.78;4.38;;;21.10;35.20;;;;;;5030631;28;20406;-74
2021/11/26 03:38:41;;;;;;;6.00;4.50;;;21.10;35.30;;;;;;5030802;28;20380;-73
2021/11/26 03:41:06;;;;;;;5.20;4.35;;;21.10;35.30;;;;;;5030577;28;20403;-73
2021/11/26 03:43:32;;;;;;;7.22;4.60;;;21.10;35.40;;;;;;5030595;28;20383;-74
2021/11/26 03:45:58;;;;;;;5.73;4.70;;;21.10;35.40;;;;;;5030146;28;20538;-72
2021/11/26 03:48:24;;;;;;;6.13;4.88;;;21.10;35.20;;;;;;5030342;28;20439;-74
2021/11/26 03:50:49;;;;;;;5.33;4.47;;;21.10;35.20;;;;;;5031858;28;20391;-75
2021/11/26 03:53:15;;;;;;;6.45;4.82;;;21.10;35.20;;;;;;5031822;28;20856;-75
2021/11/26 03:55:41;;;;;;;5.20;4.50;;;21.10;35.90;;;;;;5030327;28;20781;-73
2021/11/26 03:58:06;;;;;;;6.65;4.88;;;21.10;35.20;;;;;;5031566;28;20426;-72
2021/11/26 04:00:32;;;;;;;6.40;4.70;;;21.10;35.20;;;;;;5031668;28;20387;-74
2021/11/26 04:02:58;;;;;;;5.25;4.25;;;21.10;35.20;;;;;;5030382;28;20391;-74
2021/11/26 04:05:24;;;;;;;7.60;4.95;;;21.10;35.10;;;;;;5030325;28;20412;-73
2021/11/26 04:07:49;;;;;;;6.87;4.47;;;21.10;35.30;;;;;;5031020;28;20420;-71
2021/11/26 04:10:16;;;;;;;10.63;4.90;;;21.20;35.30;;;;;;5032198;28;20388;-73
2021/11/26 04:12:44;;;;;;;6.60;4.30;;;21.30;35.80;;;;;;5030102;28;20404;-74
2021/11/26 04:15:10;;;;;;;8.90;5.40;;;21.30;35.30;;;;;;5030676;28;20395;-74
2021/11/26 04:17:37;;;;;;;9.75;5.20;;;21.30;35.50;;;;;;5031397;28;20489;-74
2021/11/26 04:20:05;;;;;;;7.70;4.95;;;21.30;36.30;;;;;;5030984;28;20420;-73
2021/11/26 04:22:30;;;;;;;7.88;5.03;;;21.40;36.20;;;;;;5029909;28;20457;-75
2021/11/26 04:24:56;;;;;;;8.38;4.90;;;21.40;36.30;;;;;;5031273;28;20398;-74
2021/11/26 04:27:22;;;;;;;10.50;4.90;;;21.40;36.50;;;;;;5029697;28;20419;-73
2021/11/26 04:29:48;;;;;;;7.53;4.70;;;21.40;37.30;;;;;;5030660;28;20502;-75
2021/11/26 04:32:14;;;;;;;7.20;4.80;;;21.40;36.40;;;;;;5031218;28;20395;-73
2021/11/26 04:34:40;;;;;;;9.38;4.90;;;21.50;37.40;;;;;;5031489;28;20401;-74
2021/11/26 04:37:05;;;;;;;8.13;4.70;;;21.50;37.60;;;;;;5031192;28;20383;-73
2021/11/26 04:39:32;;;;;;;11.83;4.90;;;21.50;37.10;;;;;;5030343;28;20525;-73
2021/11/26 04:41:57;;;;;;;9.85;4.65;;;21.60;37.60;;;;;;5030818;28;20423;-74
2021/11/26 04:44:23;;;;;;;9.38;4.40;;;21.60;37.50;;;;;;5031036;28;20438;-74
2021/11/26 04:46:49;;;;;;;9.37;4.20;;;21.60;37.30;;;;;;5031671;28;20419;-74
2021/11/26 04:49:15;;;;;;;7.55;4.50;;;21.60;37.50;;;;;;5031117;28;20418;-74
2021/11/26 04:51:40;;;;;;;9.23;4.47;;;21.60;37.30;;;;;;5031116;28;20391;-75
2021/11/26 04:54:06;;;;;;;6.40;4.70;;;21.60;37.30;;;;;;5030491;28;20447;-74
2021/11/26 04:56:32;;;;;;;7.90;4.70;;;21.50;37.10;;;;;;5032297;28;20391;-73
2021/11/26 04:58:58;;;;;;;6.85;4.32;;;21.50;36.80;;;;;;5031937;28;20386;-74
2021/11/26 05:01:23;;;;;;;8.00;4.50;;;21.50;37.00;;;;;;5031058;28;20399;-75
2021/11/26 05:03:51;;;;;;;6.55;4.53;;;21.50;37.00;;;;;;5030770;28;20865;-74
2021/11/26 05:06:17;;;;;;;7.70;4.28;;;21.50;36.70;;;;;;5031254;28;20426;-75
2021/11/26 05:08:43;;;;;;;7.07;4.25;;;21.50;36.90;;;;;;5029855;28;20397;-73
2021/11/26 05:11:09;;;;;;;11.05;4.90;;;21.50;37.20;;;;;;5031118;28;20482;-76
2021/11/26 05:13:41;;;;;;;8.20;4.50;;;21.50;37.50;;;;;;5031091;28;20482;-72
2021/11/26 05:16:07;;;;;;;8.00;4.13;;;21.50;37.30;;;;;;5021839;28;20393;-71
2021/11/26 05:18:32;;;;;;;9.53;4.67;;;21.50;37.20;;;;;;5022874;28;20406;-74
2021/11/26 05:20:58;;;;;;;7.90;4.20;;;21.50;37.30;;;;;;5016346;28;20427;-75
2021/11/26 05:23:24;;;;;;;8.67;4.50;;;21.50;37.30;;;;;;5019148;28;20461;-74
2021/11/26 05:25:51;;;;;;;6.47;4.00;;;21.60;37.10;;;;;;5019808;28;20425;-72
2021/11/26 05:28:17;;;;;;;6.25;4.25;;;21.60;37.10;;;;;;5018997;28;20385;-73
2021/11/26 05:30:44;;;;;;;6.15;4.20;;;21.60;37.00;;;;;;5022115;28;20778;-73
2021/11/26 05:33:10;;;;;;;8.48;4.03;;;21.60;36.90;;;;;;5021321;28;20392;-73
2021/11/26 05:35:36;;;;;;;6.22;4.00;;;21.50;36.80;;;;;;5025726;28;20493;-73
2021/11/26 05:38:02;;;;;;;6.40;3.90;;;21.50;36.70;;;;;;5026348;28;20553;-74
2021/11/26 05:40:28;;;;;;;6.95;4.18;;;21.60;36.60;;;;;;5025816;28;20755;-73
2021/11/26 05:42:54;;;;;;;6.33;4.30;;;21.60;36.60;;;;;;5033255;28;20395;-71
2021/11/26 05:45:20;;;;;;;7.55;3.97;;;21.50;36.90;;;;;;5032989;28;20422;-72
2021/11/26 05:47:46;;;;;;;8.48;4.00;;;21.50;36.80;;;;;;5033359;28;20379;-67
2021/11/26 05:50:15;;;;;;;7.65;4.13;;;21.60;36.80;;;;;;5028746;28;20532;-74
2021/11/26 05:52:41;;;;;;;9.45;4.57;;;21.60;36.70;;;;;;5032792;28;20410;-74
2021/11/26 05:55:10;;;;;;;8.75;4.10;;;21.60;36.80;;;;;;5032916;28;20402;-73
2021/11/26 05:57:36;;;;;;;11.75;4.00;;;21.50;36.80;;;;;;5034051;28;20482;-73
2021/11/26 06:00:06;;;;;;;9.00;3.97;;;21.60;37.10;;;;;;5033406;28;20525;-72
2021/11/26 06:02:32;;;;;;;10.20;4.20;;;21.60;37.00;;;;;;5014356;28;20962;-71
2021/11/26 06:04:58;;;;;;;10.50;3.90;;;21.60;37.10;;;;;;5031766;28;20510;-76
2021/11/26 06:07:23;;;;;;;8.18;4.38;;;21.60;36.90;;;;;;5030803;28;20430;-76
2021/11/26 06:09:49;;;;;;;11.07;4.37;;;21.50;36.40;;;;;;5033850;28;20758;-76
2021/11/26 06:12:15;;;;;;;8.10;4.10;;;21.50;36.60;;;;;;5033376;28;20751;-74
2021/11/26 06:14:40;;;;;;;9.93;4.60;;;21.50;36.40;;;;;;5033681;28;20865;-74
2021/11/26 06:17:06;;;;;;;9.50;4.70;;;21.50;36.70;;;;;;5032175;28;20446;-76
2021/11/26 06:19:32;;;;;;;9.25;4.30;;;21.60;36.50;;;;;;5031475;28;20399;-76
2021/11/26 06:21:59;;;;;;;8.93;4.55;;;21.70;36.70;;;;;;5048296;28;20400;-77
2021/11/26 06:24:25;;;;;;;9.93;4.55;;;21.70;36.90;;;;;;5031570;28;20474;-67
2021/11/26 06:26:50;;;;;;;7.33;4.23;;;21.70;37.00;;;;;;5032440;28;20931;-76
2021/11/26 06:29:16;;;;;;;10.40;5.05;;;21.70;36.00;;;;;;5033361;28;20399;-71
2021/11/26 06:31:42;;;;;;;8.77;4.60;;;21.70;36.40;;;;;;5031682;28;20449;-76
2021/11/26 06:34:07;;;;;;;7.43;4.45;;;21.60;36.10;;;;;;5032703;28;20395;-72
2021/11/26 06:36:33;;;;;;;9.38;5.22;;;21.70;36.20;;;;;;5033054;28;20392;-76
2021/11/26 06:39:00;;;;;;;8.02;4.90;;;21.60;36.10;;;;;;5032936;28;20931;-77
2021/11/26 06:41:26;;;;;;;7.00;4.60;;;21.60;36.20;;;;;;5032967;28;20388;-76
2021/11/26 06:43:51;;;;;;;7.22;4.40;;;21.70;36.20;;;;;;5032550;28;20402;-75
2021/11/26 06:46:17;;;;;;;7.22;4.22;;;21.70;36.20;;;;;;5032366;28;20780;-77
2021/11/26 06:48:43;;;;;;;8.25;5.05;;;21.70;35.90;;;;;;5032381;28;20449;-77
2021/11/26 06:51:08;;;;;;;8.15;4.57;;;21.70;35.80;;;;;;5032850;28;20406;-76
2021/11/26 06:53:34;;;;;;;7.93;4.43;;;21.70;35.80;;;;;;5032613;28;20493;-76
2021/11/26 06:56:00;;;;;;;6.10;4.17;;;21.70;35.80;;;;;;5030708;28;20395;-74
2021/11/26 06:58:26;;;;;;;7.18;4.25;;;21.70;35.70;;;;;;5032696;28;20510;-73
2021/11/26 07:00:51;;;;;;;7.07;4.20;;;21.70;35.60;;;;;;5031751;28;20426;-72
2021/11/26 07:03:17;;;;;;;6.55;4.65;;;21.70;35.60;;;;;;5032386;28;20398;-73
2021/11/26 07:05:43;;;;;;;7.90;4.50;;;21.70;35.50;;;;;;5032345;28;20411;-77
2021/11/26 07:08:08;;;;;;;7.00;4.27;;;21.70;35.50;;;;;;5032350;28;20486;-72
2021/11/26 07:10:34;;;;;;;6.40;4.15;;;21.60;35.40;;;;;;5032593;28;20371;-78
2021/11/26 07:13:00;;;;;;;7.10;4.50;;;21.60;35.50;;;;;;5033238;28;20450;-67
2021/11/26 07:15:26;;;;;;;6.80;4.10;;;21.70;35.50;;;;;;5032482;28;20723;-78
2021/11/26 07:17:51;;;;;;;6.30;4.30;;;21.60;35.20;;;;;;5032224;28;20396;-70
2021/11/26 07:20:17;;;;;;;6.43;4.70;;;21.60;35.20;;;;;;5032584;28;20446;-77
2021/11/26 07:22:44;;;;;;;6.55;4.60;;;21.60;35.20;;;;;;5032241;28;20491;-78
2021/11/26 07:25:11;;;;;;;7.95;4.35;;;21.60;35.30;;;;;;5031738;28;20392;-77
2021/11/26 07:27:36;;;;;;;7.78;4.43;;;21.60;35.20;;;;;;5030796;28;20883;-75
2021/11/26 07:30:04;;;;;;;6.47;4.40;;;21.60;35.10;;;;;;5031633;28;20383;-71
2021/11/26 07:32:29;;;;;;;6.20;4.05;;;21.60;35.20;;;;;;5032715;28;20394;-75
2021/11/26 07:34:55;;;;;;;7.90;4.50;;;21.60;35.10;;;;;;5032328;28;21056;-75
2021/11/26 07:37:21;;;;;;;6.20;4.55;;;21.60;35.20;;;;;;5032237;28;20889;-75
2021/11/26 07:39:47;;;;;;;6.07;4.13;;;21.70;35.20;;;;;;5032033;28;20387;-71
2021/11/26 07:42:13;;;;;;;6.80;4.38;;;21.60;35.10;;;;;;5030353;28;20407;-72
2021/11/26 07:44:40;;;;;;;5.88;4.10;;;21.60;34.90;;;;;;5031752;28;20387;-68
2021/11/26 07:47:09;;;;;;;7.22;4.10;;;21.50;35.30;;;;;;5029938;28;20423;-71
2021/11/26 07:49:36;;;;;;;7.28;4.20;;;21.50;35.30;;;;;;5031877;28;20393;-76
2021/11/26 07:52:05;;;;;;;6.05;4.00;;;21.50;35.30;;;;;;5030815;28;20482;-76
2021/11/26 07:54:32;;;;;;;7.50;4.05;;;21.50;35.50;;;;;;5031360;28;20466;-73
2021/11/26 07:56:58;;;;;;;6.55;4.40;;;21.50;35.60;;;;;;5031493;28;20453;-70
2021/11/26 07:59:26;;;;;;;7.47;4.05;;;21.50;35.60;;;;;;5030853;28;20395;-76
2021/11/26 08:01:52;;;;;;;7.18;4.60;;;21.60;35.50;;;;;;5020625;28;20401;-75
2021/11/26 08:04:18;;;;;;;7.90;4.55;;;21.50;35.30;;;;;;5013534;28;20429;-67
2021/11/26 08:06:46;;;;;;;6.15;4.18;;;21.50;35.20;;;;;;5011383;28;20428;-67
2021/11/26 08:09:14;;;;;;;6.45;4.30;;;21.50;35.10;;;;;;5011284;28;20389;-74
2021/11/26 08:11:40;;;;;;;7.55;4.20;;;21.40;34.90;;;;;;5011426;28;20479;-70
2021/11/26 08:14:06;;;;;;;6.32;4.43;;;21.40;34.90;;;;;;5011125;28;20863;-75
2021/11/26 08:16:32;;;;;;;7.38;4.30;;;21.40;34.90;;;;;;5026568;28;20404;-77
2021/11/26 08:18:58;;;;;;;6.70;4.50;;;21.40;34.80;;;;;;5011668;28;20435;-70
2021/11/26 08:21:23;;;;;;;6.95;4.78;;;21.40;34.90;;;;;;5011573;28;20428;-76
2021/11/26 08:23:49;;;;;;;5.97;4.30;;;21.40;34.90;;;;;;5011552;28;20385;-69
2021/11/26 08:26:15;;;;;;;7.30;4.43;;;21.30;34.80;;;;;;5009173;28;20416;-73
2021/11/26 08:28:41;;;;;;;6.35;4.50;;;21.30;34.90;;;;;;5011686;28;20427;-76
2021/11/26 08:31:07;;;;;;;6.50;4.43;;;21.30;34.90;;;;;;5020880;28;20421;-76
2021/11/26 08:33:32;;;;;;;5.57;4.47;;;21.30;34.90;;;;;;5030466;28;20399;-77
2021/11/26 08:35:58;;;;;;;7.80;4.35;;;21.30;34.90;;;;;;5029843;28;20537;-69
2021/11/26 08:38:24;;;;;;;6.20;4.37;;;21.30;34.80;;;;;;5029846;28;20418;-68
2021/11/26 08:40:50;;;;;;;5.85;4.20;;;21.30;34.80;;;;;;5029460;28;20435;-73
2021/11/26 08:43:16;;;;;;;6.32;4.50;;;21.20;34.70;;;;;;5031232;28;20892;-74
2021/11/26 08:45:42;;;;;;;6.50;4.35;;;21.30;34.80;;;;;;5030914;28;20500;-73
2021/11/26 08:48:08;;;;;;;6.35;4.15;;;21.20;34.70;;;;;;5030657;28;20400;-77
2021/11/26 08:50:34;;;;;;;16.87;4.73;;;21.20;34.80;;;;;;5029450;28;20423;-74
2021/11/26 08:53:03;;;;;;;15.65;4.90;;;21.20;35.20;;;;;;5030790;28;20384;-73
2021/11/26 08:55:29;;;;;;;18.92;4.85;;;21.20;35.10;;;;;;5031082;28;20756;-75
2021/11/26 08:57:55;;;;;;;18.15;5.10;;;21.20;35.20;;;;;;5029574;28;20485;-69
2021/11/26 09:00:28;;;;;;;16.42;4.68;;;21.20;35.90;;;;;;5030407;28;20387;-74
2021/11/26 09:02:54;;;;;;;12.55;4.53;;;21.30;35.30;;;;;;5015134;28;20403;-77
2021/11/26 09:05:20;;;;;;;13.23;4.57;;;21.30;35.30;;;;;;5010950;28;20393;-65
2021/11/26 09:07:47;;;;;;;12.27;4.80;;;21.30;35.20;;;;;;5010926;28;20810;-78
2021/11/26 09:10:14;;;;;;;10.40;4.60;;;21.30;35.00;;;;;;5010910;28;20460;-66
2021/11/26 09:12:40;;;;;;;10.40;4.45;;;21.30;35.10;;;;;;5013524;28;20759;-68
2021/11/26 09:15:06;;;;;;;14.00;4.40;;;21.30;35.20;;;;;;5014440;28;20447;-66
2021/11/26 09:17:32;;;;;;;11.52;4.60;;;21.20;35.50;;;;;;5015164;28;20968;-67
2021/11/26 09:19:58;;;;;;;13.18;4.90;;;21.30;35.30;;;;;;5014493;28;20483;-65
2021/11/26 09:22:24;;;;;;;9.23;4.50;;;21.30;35.60;;;;;;5013009;28;20748;-70
2021/11/26 09:24:50;;;;;;;9.57;4.70;;;21.30;35.80;;;;;;5014369;28;20455;-69
2021/11/26 09:27:15;;;;;;;10.82;4.40;;;21.30;35.70;;;;;;5014035;28;20432;-66
2021/11/26 09:29:45;;;;;;;9.80;4.00;;;21.30;35.60;;;;;;5014237;28;20906;-66
2021/11/26 09:32:11;;;;;;;9.05;4.30;;;21.30;35.50;;;;;;5012395;28;20408;-66
2021/11/26 09:34:38;;;;;;;9.70;4.43;;;21.30;35.30;;;;;;5012623;28;20408;-69
2021/11/26 09:37:04;;;;;;;8.27;4.07;;;21.30;35.40;;;;;;5014231;28;20829;-70
2021/11/26 09:39:30;;;;;;;9.15;4.28;;;21.30;35.30;;;;;;5012108;28;20397;-70
2021/11/26 09:41:56;;;;;;;7.90;4.07;;;21.30;35.40;;;;;;5017414;28;20756;-69
2021/11/26 09:44:22;;;;;;;7.60;4.13;;;21.30;35.10;;;;;;5012955;28;20408;-65
2021/11/26 09:46:54;;;;;;;7.70;3.67;;;21.30;35.00;;;;;;5022958;28;20421;-67
2021/11/26 09:49:21;;;;;;;5.63;3.85;;;21.30;35.10;;;;;;5030571;28;20422;-68
2021/11/26 09:51:48;;;;;;;5.83;3.77;;;21.30;35.10;;;;;;5031447;28;20482;-70
2021/11/26 09:54:14;;;;;;;6.28;3.60;;;21.30;35.20;;;;;;5033576;28;20379;-67
2021/11/26 09:56:40;;;;;;;7.22;3.63;;;21.30;35.30;;;;;;5033934;28;20482;-78
2021/11/26 09:59:06;;;;;;;6.03;3.50;;;21.30;35.30;;;;;;5033224;28;20821;-69
2021/11/26 10:01:31;;;;;;;5.45;3.47;;;21.20;35.20;;;;;;5033161;28;20494;-67
2021/11/26 10:03:57;;;;;;;5.80;3.35;;;21.20;35.50;;;;;;5015434;28;20429;-71
2021/11/26 10:06:41;;;;;;;5.70;3.70;;;21.30;35.30;;;;;;5011933;28;20429;-69
2021/11/26 10:09:11;;;;;;;5.40;3.38;;;21.20;35.40;;;;;;5033386;28;20391;-75
2021/11/26 10:11:48;;;;;;;5.88;3.40;;;21.30;35.40;;;;;;5033036;28;20877;-67
2021/11/26 10:14:23;;;;;;;6.22;3.65;;;21.30;35.50;;;;;;5027277;28;20399;-73
2021/11/26 10:16:55;;;;;;;5.35;3.42;;;21.30;35.40;;;;;;5030007;28;20459;-67
2021/11/26 10:19:41;;;;;;;5.33;3.70;;;21.30;35.30;;;;;;5046660;28;20435;-70
2021/11/26 10:22:22;;;;;;;6.65;3.78;;;21.20;35.30;;;;;;5026321;28;20411;-64
2021/11/26 10:25:15;;;;;;;8.63;3.63;;;21.30;35.30;;;;;;5032875;28;20960;-64
2021/11/26 10:28:02;;;;;;;5.45;3.60;;;21.30;35.40;;;;;;5031481;28;20920;-64
2021/11/26 10:30:39;;;;;;;7.30;3.63;;;21.20;35.40;;;;;;5032875;28;21030;-64
2021/11/26 10:33:32;;;;;;;5.80;3.60;;;21.20;35.20;;;;;;5031934;28;20407;-70
2021/11/26 10:36:01;;;;;;;6.28;3.17;;;21.30;35.30;;;;;;5033638;28;20435;-73
2021/11/26 10:38:29;;;;;;;6.70;3.35;;;21.30;35.30;;;;;;5032925;28;20869;-65
2021/11/26 10:41:01;;;;;;;7.20;3.80;;;21.20;35.20;;;;;;5033504;28;20402;-76
2021/11/26 10:43:43;;;;;;;7.57;3.75;;;21.30;35.30;;;;;;5033300;28;20502;-80
2021/11/26 10:59:51;;;;;;;8.30;4.45;;;21.40;34.70;;;;;;5032698;28;20442;-70
2021/11/26 11:02:28;;;;;;;7.32;3.80;;;21.50;34.80;;;;;;5047577;28;20442;-70
2021/11/26 11:04:54;;;;;;;8.32;4.13;;;21.60;34.80;;;;;;5047639;28;20399;-73
2021/11/26 11:07:20;;;;;;;10.82;4.07;;;21.50;34.80;;;;;;5031346;28;20461;-71
2021/11/26 11:09:50;;;;;;;9.87;4.13;;;21.50;36.30;;;;;;5032656;28;20851;-72
2021/11/26 11:12:17;;;;;;;10.35;4.30;;;21.60;37.00;;;;;;5031894;28;20387;-71
2021/11/26 11:14:57;;;;;;;10.18;5.05;;;21.60;37.30;;;;;;5031177;28;20391;-72
2021/11/26 11:17:27;;;;;;;7.75;4.40;;;21.60;38.00;;;;;;5032332;28;20392;-72
2021/11/26 11:19:57;;;;;;;10.90;3.95;;;21.60;37.40;;;;;;5032679;28;20421;-71
2021/11/26 11:22:24;;;;;;;8.80;4.30;;;21.60;37.60;;;;;;5032129;28;20482;-71
2021/11/26 11:24:50;;;;;;;9.50;4.55;;;21.60;37.90;;;;;;5029343;28;20433;-72
2021/11/26 11:27:16;;;;;;;10.68;4.57;;;21.60;39.00;;;;;;5023573;28;20492;-72
2021/11/26 11:29:42;;;;;;;11.18;4.60;;;21.60;39.30;;;;;;5022555;28;20428;-72
2021/11/26 11:32:10;;;;;;;8.20;4.97;;;21.60;40.40;;;;;;5018467;28;20419;-75
2021/11/26 11:34:36;;;;;;;8.38;4.93;;;21.60;39.70;;;;;;5022767;28;20808;-71
2021/11/26 11:37:07;;;;;;;8.90;6.63;;;21.70;37.50;;;;;;5020194;28;20406;-72
2021/11/26 11:39:51;;;;;;;13.10;6.77;;;21.80;38.10;;;;;;5024114;28;20520;-71
2021/11/26 11:42:26;;;;;;;9.63;5.88;;;21.90;38.20;;;;;;5017475;28;20409;-71
2021/11/26 11:45:10;;;;;;;11.77;6.57;;;22.00;37.60;;;;;;5025880;28;20715;-71
2021/11/26 11:47:44;;;;;;;13.63;6.28;;;22.20;36.00;;;;;;5030269;28;20842;-71
2021/11/26 11:50:12;;;;;;;9.93;5.72;;;22.30;37.00;;;;;;5022778;28;20458;-71
2021/11/26 11:52:40;;;;;;;9.50;5.53;;;22.40;37.50;;;;;;5012196;28;20791;-71
2021/11/26 11:55:21;;;;;;;11.88;5.82;;;22.40;37.80;;;;;;5011841;28;20393;-72
2021/11/26 11:57:47;;;;;;;12.60;6.17;;;22.40;37.00;;;;;;5012032;28;20407;-71
2021/11/26 12:00:18;;;;;;;10.85;5.65;;;22.40;37.10;;;;;;5011419;28;20895;-70
2021/11/26 12:02:45;;;;;;;14.48;5.75;;;22.50;37.00;;;;;;5011699;28;20415;-70
2021/11/26 12:05:25;;;;;;;10.90;5.85;;;22.50;37.20;;;;;;5011735;28;20447;-71
2021/11/26 12:08:06;;;;;;;9.32;5.90;;;22.60;37.50;;;;;;5011931;28;20483;-71
2021/11/26 12:10:51;;;;;;;9.50;6.22;;;22.60;37.60;;;;;;5012191;28;20747;-70
2021/11/26 12:13:21;;;;;;;11.02;7.07;;;22.70;37.40;;;;;;5011746;28;20389;-71
2021/11/26 12:15:47;;;;;;;11.93;6.40;;;22.90;36.20;;;;;;5011035;28;20446;-72
2021/11/26 12:18:13;;;;;;;10.52;6.10;;;23.30;36.70;;;;;;5030200;28;20844;-71
2021/11/26 12:20:41;;;;;;;10.77;6.40;;;23.30;35.60;;;;;;5029882;28;20427;-70
2021/11/26 12:23:25;;;;;;;9.82;5.68;;;23.20;37.50;;;;;;5030079;28;20906;-72
2021/11/26 12:28:49;;;;;;;8.65;5.60;;;23.10;38.10;;;;;;5031353;28;20742;-71
2021/11/26 12:31:15;;;;;;;8.98;5.75;;;23.10;39.60;;;;;;5029879;28;20403;-71
2021/11/26 12:33:41;;;;;;;8.65;5.25;;;23.10;39.30;;;;;;5019574;28;20804;-72
2021/11/26 12:36:11;;;;;;;8.55;5.22;;;23.00;39.30;;;;;;5019578;28;20388;-72
2021/11/26 12:38:47;;;;;;;8.52;5.35;;;23.00;39.00;;;;;;5010664;28;20401;-72
2021/11/26 12:41:25;;;;;;;8.00;4.85;;;22.90;37.50;;;;;;5019147;28;20391;-70
2021/11/26 12:43:51;;;;;;;8.75;5.15;;;22.90;38.30;;;;;;5021345;28;20891;-74
2021/11/26 12:46:39;;;;;;;8.02;4.53;;;22.80;38.00;;;;;;5033771;28;20438;-76
2021/11/26 12:51:46;;;;;;;6.75;4.43;;;22.70;37.90;;;;;;5021293;28;20419;-78
2021/11/26 12:54:26;;;;;;;6.85;4.20;;;22.60;37.20;;;;;;5014350;28;20385;-77
2021/11/26 12:56:54;;;;;;;9.00;4.05;;;22.60;37.30;;;;;;5014096;28;20855;-70
2021/11/26 12:59:30;;;;;;;6.90;4.47;;;22.60;36.60;;;;;;5014178;28;20476;-77
2021/11/26 13:01:56;;;;;;;7.35;4.20;;;22.60;36.90;;;;;;5016014;28;20381;-80
2021/11/26 13:04:22;;;;;;;7.43;4.07;;;22.50;37.00;;;;;;5014261;28;20743;-82
2021/11/26 13:06:48;;;;;;;7.57;4.10;;;22.60;37.10;;;;;;5018361;28;20459;-90